Time;durP1;ratioP1;P1;durP2;ratioP2;P2;SDS_P1;SDS_P2;PMS_P1;PMS_P2;Temp;Humidity;BMP_temperature;BMP_pressure;BME280_temperature;BME280_humidity;BME280_pressure;Samples;Min_cycle;Max_cycle;Signal;HPM_P1;HPM_P2
2022/07/10 00:00:21;;;;;;;7.37;6.67;;;19.90;99.90;;;;;;4935974;29;20524;-85
2022/07/10 00:02:48;;;;;;;7.87;7.17;;;19.90;99.90;;;;;;4936556;29;20497;-85
2022/07/10 00:05:14;;;;;;;5.63;5.00;;;19.80;99.90;;;;;;4937345;29;20482;-85
2022/07/10 00:07:41;;;;;;;6.43;5.83;;;19.90;99.90;;;;;;4936210;29;20461;-85
2022/07/10 00:10:08;;;;;;;6.00;5.40;;;19.90;99.90;;;;;;4936400;29;20462;-84
2022/07/10 00:12:35;;;;;;;5.73;5.23;;;19.90;99.90;;;;;;4936324;29;20494;-84
2022/07/10 00:15:03;;;;;;;5.90;5.20;;;19.90;99.90;;;;;;4935803;29;20967;-85
2022/07/10 00:17:31;;;;;;;6.50;5.90;;;20.00;99.90;;;;;;4936372;29;20454;-85
2022/07/10 00:19:57;;;;;;;6.13;5.53;;;20.00;99.90;;;;;;4936136;29;20464;-84
2022/07/10 00:22:24;;;;;;;5.40;5.00;;;20.00;99.90;;;;;;4936222;29;20450;-85
2022/07/10 00:24:52;;;;;;;5.90;5.30;;;20.00;99.90;;;;;;4935766;29;20816;-85
2022/07/10 00:27:19;;;;;;;5.83;5.10;;;20.00;99.90;;;;;;4943100;29;20426;-84
2022/07/10 00:29:46;;;;;;;5.87;5.10;;;20.00;99.90;;;;;;4948365;29;21046;-84
2022/07/10 00:32:14;;;;;;;5.87;5.27;;;20.00;99.90;;;;;;4944592;29;20952;-84
2022/07/10 00:34:41;;;;;;;7.13;6.43;;;20.00;99.90;;;;;;4935655;29;20881;-85
2022/07/10 00:37:07;;;;;;;5.63;5.00;;;20.00;99.90;;;;;;4934968;29;20453;-85
2022/07/10 00:39:34;;;;;;;5.57;5.07;;;20.10;99.90;;;;;;4936232;29;20450;-85
2022/07/10 00:42:08;;;;;;;5.33;4.93;;;20.00;99.90;;;;;;4935664;29;20947;-85
2022/07/10 00:44:35;;;;;;;7.07;5.97;;;20.00;99.90;;;;;;4935814;29;20508;-85
2022/07/10 00:47:02;;;;;;;6.17;5.57;;;20.00;99.90;;;;;;4935592;29;20450;-85
2022/07/10 00:49:30;;;;;;;6.10;5.50;;;20.00;99.90;;;;;;4935651;29;20947;-84
2022/07/10 00:51:58;;;;;;;7.10;5.30;;;20.00;99.90;;;;;;4935489;29;20899;-84
2022/07/10 00:54:26;;;;;;;6.37;5.77;;;19.90;99.90;;;;;;4937901;29;20912;-85
2022/07/10 00:56:53;;;;;;;6.73;5.20;;;19.90;99.90;;;;;;4941529;29;20450;-84
2022/07/10 00:59:20;;;;;;;5.77;5.27;;;19.80;99.90;;;;;;4958576;29;20972;-85
2022/07/10 01:01:47;;;;;;;7.30;5.53;;;19.80;99.90;;;;;;4956093;29;20446;-84
2022/07/10 01:04:14;;;;;;;5.53;5.07;;;19.80;99.90;;;;;;4957018;29;20482;-83
2022/07/10 01:06:42;;;;;;;5.10;4.63;;;19.70;99.90;;;;;;4951376;29;20443;-84
2022/07/10 01:09:09;;;;;;;5.53;5.10;;;19.70;99.90;;;;;;4936754;29;20461;-85
2022/07/10 01:11:37;;;;;;;7.07;5.40;;;19.60;99.90;;;;;;4950603;29;20450;-84
2022/07/10 01:14:04;;;;;;;5.90;5.30;;;19.60;99.90;;;;;;4949426;29;20565;-85
2022/07/10 01:16:32;;;;;;;5.43;5.03;;;19.50;99.90;;;;;;4946014;29;20458;-85
2022/07/10 01:18:59;;;;;;;6.43;5.70;;;19.50;99.90;;;;;;4946108;29;20457;-85
2022/07/10 01:21:28;;;;;;;5.57;5.07;;;19.40;99.90;;;;;;4941133;29;20453;-85
2022/07/10 01:23:55;;;;;;;5.53;5.13;;;19.30;99.90;;;;;;4940473;29;20442;-84
2022/07/10 01:26:23;;;;;;;5.30;4.80;;;19.30;99.90;;;;;;4941447;29;20513;-85
2022/07/10 01:28:51;;;;;;;5.80;5.30;;;19.20;99.90;;;;;;4941887;29;20434;-84
2022/07/10 01:31:19;;;;;;;5.33;4.93;;;19.20;99.90;;;;;;4939962;29;20450;-84
2022/07/10 01:33:48;;;;;;;5.70;5.20;;;19.20;99.90;;;;;;4940742;29;20528;-84
2022/07/10 01:36:15;;;;;;;6.10;5.60;;;19.30;99.90;;;;;;4939801;29;20450;-85
2022/07/10 01:38:43;;;;;;;5.90;5.30;;;19.20;99.90;;;;;;4940455;29;20438;-84
2022/07/10 01:41:10;;;;;;;6.10;5.60;;;19.20;99.90;;;;;;4939869;29;20458;-85
2022/07/10 01:43:42;;;;;;;7.07;6.33;;;19.10;99.90;;;;;;4940482;29;20454;-86
2022/07/10 01:46:10;;;;;;;12.50;6.90;;;19.00;99.90;;;;;;4939217;29;20492;-85
2022/07/10 01:48:38;;;;;;;7.00;6.30;;;19.00;99.90;;;;;;4938590;29;20453;-85
2022/07/10 01:51:05;;;;;;;6.47;5.50;;;19.00;99.90;;;;;;4938432;29;20461;-85
2022/07/10 01:53:32;;;;;;;6.93;6.33;;;19.00;99.90;;;;;;4938323;29;20481;-85
2022/07/10 01:56:01;;;;;;;7.00;6.40;;;19.00;99.90;;;;;;4942445;29;20538;-84
2022/07/10 01:58:28;;;;;;;6.40;5.43;;;18.90;99.90;;;;;;4949696;29;20517;-84
2022/07/10 02:00:54;;;;;;;7.23;6.63;;;18.90;99.90;;;;;;4953036;29;20446;-84
2022/07/10 02:06:06;;;;;;;7.97;7.17;;;18.80;99.90;;;;;;4942828;29;20469;-85
2022/07/10 02:08:32;;;;;;;7.50;6.90;;;18.80;99.90;;;;;;4938891;29;20458;-84
2022/07/10 02:11:00;;;;;;;7.20;6.70;;;18.80;99.90;;;;;;4938155;29;20461;-85
2022/07/10 02:13:28;;;;;;;7.03;6.33;;;18.70;99.90;;;;;;4938504;29;20490;-84
2022/07/10 02:15:55;;;;;;;7.37;6.67;;;18.60;99.90;;;;;;4937861;29;20506;-85
2022/07/10 02:18:22;;;;;;;8.13;7.33;;;18.60;99.90;;;;;;4959256;29;20450;-83
2022/07/10 02:20:49;;;;;;;7.70;7.10;;;18.60;99.90;;;;;;4960857;29;20441;-84
2022/07/10 02:23:16;;;;;;;7.73;6.93;;;18.60;99.90;;;;;;4945163;29;20426;-84
2022/07/10 02:25:43;;;;;;;6.63;6.13;;;18.50;99.90;;;;;;4956067;29;20517;-84
2022/07/10 02:28:11;;;;;;;7.50;6.90;;;18.60;99.90;;;;;;4943787;29;20557;-85
2022/07/10 02:30:38;;;;;;;7.50;6.80;;;18.60;99.90;;;;;;4951555;29;20442;-84
2022/07/10 02:33:04;;;;;;;6.93;6.40;;;18.60;99.90;;;;;;4951378;29;20486;-84
2022/07/10 02:35:31;;;;;;;7.80;7.10;;;18.70;99.90;;;;;;4940149;29;20478;-84
2022/07/10 02:37:58;;;;;;;9.40;7.50;;;18.60;99.90;;;;;;4937777;29;20481;-85
2022/07/10 02:40:24;;;;;;;9.03;8.20;;;18.70;99.90;;;;;;4938335;29;20834;-84
2022/07/10 02:42:51;;;;;;;9.17;8.37;;;18.80;99.90;;;;;;4937560;29;20510;-84
2022/07/10 02:45:19;;;;;;;10.10;9.20;;;18.80;99.90;;;;;;4936898;29;20478;-84
2022/07/10 02:47:46;;;;;;;10.10;9.30;;;18.80;99.90;;;;;;4937249;29;20453;-84
2022/07/10 02:50:13;;;;;;;10.70;9.67;;;18.80;99.90;;;;;;4937012;29;20533;-84
2022/07/10 02:52:39;;;;;;;10.57;9.67;;;18.80;99.90;;;;;;4938489;29;20450;-84
2022/07/10 02:55:07;;;;;;;10.83;10.00;;;18.80;99.90;;;;;;4936758;29;20545;-85
2022/07/10 02:57:34;;;;;;;13.03;11.97;;;18.70;99.90;;;;;;4937647;29;20458;-84
2022/07/10 03:00:00;;;;;;;12.57;11.57;;;18.70;99.90;;;;;;4941707;29;20442;-85
2022/07/10 03:02:28;;;;;;;13.50;12.33;;;18.50;99.90;;;;;;4957301;29;20453;-84
2022/07/10 03:04:55;;;;;;;13.60;12.30;;;18.50;99.90;;;;;;4937890;29;20470;-85
2022/07/10 03:07:22;;;;;;;12.50;11.50;;;18.40;99.90;;;;;;4936888;29;20462;-84
2022/07/10 03:09:49;;;;;;;12.17;11.20;;;18.40;99.90;;;;;;4937200;29;20474;-84
2022/07/10 03:12:15;;;;;;;11.97;10.97;;;18.50;99.90;;;;;;4936436;29;20964;-84
2022/07/10 03:14:42;;;;;;;13.93;12.53;;;18.50;99.90;;;;;;4951357;29;20498;-84
2022/07/10 03:17:09;;;;;;;12.33;11.23;;;18.50;99.90;;;;;;4946729;29;20447;-84
2022/07/10 03:19:37;;;;;;;12.90;11.80;;;18.50;99.90;;;;;;4950957;29;20487;-84
2022/07/10 03:22:04;;;;;;;13.10;12.00;;;18.50;99.90;;;;;;4936615;29;21015;-85
2022/07/10 03:24:30;;;;;;;12.50;11.40;;;18.40;99.90;;;;;;4937458;29;20473;-84
2022/07/10 03:26:57;;;;;;;12.67;11.53;;;18.40;99.90;;;;;;4937521;29;20446;-84
2022/07/10 03:29:24;;;;;;;12.90;11.70;;;18.40;99.90;;;;;;4948462;29;20446;-84
2022/07/10 03:31:51;;;;;;;18.23;11.27;;;18.30;99.90;;;;;;4957367;29;20443;-84
2022/07/10 03:34:18;;;;;;;13.77;12.27;;;18.30;99.90;;;;;;4960138;29;20490;-84
2022/07/10 03:36:46;;;;;;;12.93;11.73;;;18.20;99.90;;;;;;4941995;29;20442;-84
2022/07/10 03:39:12;;;;;;;13.50;12.20;;;18.20;99.90;;;;;;4958423;29;20446;-84
2022/07/10 03:41:39;;;;;;;12.90;11.60;;;18.20;99.90;;;;;;4938203;29;20454;-84
2022/07/10 03:44:06;;;;;;;11.63;10.63;;;18.20;99.90;;;;;;4936253;29;20465;-84
2022/07/10 03:46:33;;;;;;;10.70;9.60;;;18.10;99.90;;;;;;4936478;29;20492;-84
2022/07/10 03:48:59;;;;;;;11.27;10.37;;;18.00;99.90;;;;;;4936116;29;20454;-84
2022/07/10 03:51:26;;;;;;;11.50;10.10;;;18.00;99.90;;;;;;4935882;29;20450;-84
2022/07/10 03:53:54;;;;;;;10.27;9.47;;;18.00;99.90;;;;;;4935731;29;20521;-85
2022/07/10 03:59:05;;;;;;;10.37;9.37;;;17.90;99.90;;;;;;4936405;29;20820;-85
2022/07/10 04:01:32;;;;;;;10.87;10.03;;;17.90;99.90;;;;;;4936352;29;21130;-85
2022/07/10 04:03:58;;;;;;;11.03;9.93;;;17.80;99.90;;;;;;4937145;29;20455;-84
2022/07/10 04:06:25;;;;;;;11.10;10.20;;;17.80;99.90;;;;;;4935796;29;20587;-85
2022/07/10 04:08:53;;;;;;;10.80;9.70;;;17.80;99.90;;;;;;4935707;29;20449;-84
2022/07/10 04:11:20;;;;;;;11.97;9.80;;;17.80;99.90;;;;;;4941719;29;20482;-84
2022/07/10 04:13:46;;;;;;;11.83;10.40;;;17.90;99.90;;;;;;4945290;29;20486;-84
2022/07/10 04:16:13;;;;;;;9.40;8.70;;;18.00;99.90;;;;;;4934943;29;20873;-84
2022/07/10 04:18:40;;;;;;;10.40;9.40;;;18.10;99.90;;;;;;4935636;29;20458;-84
2022/07/10 04:21:07;;;;;;;10.93;8.80;;;18.10;99.90;;;;;;4935042;29;20457;-84
2022/07/10 04:23:33;;;;;;;11.10;9.90;;;18.20;99.90;;;;;;4935151;29;20462;-84
2022/07/10 04:26:02;;;;;;;11.43;10.37;;;18.20;99.90;;;;;;4934785;29;20998;-84
2022/07/10 04:28:28;;;;;;;10.53;9.70;;;18.30;99.90;;;;;;4935323;29;20459;-85
2022/07/10 04:30:55;;;;;;;11.57;10.30;;;18.20;99.90;;;;;;4937111;29;20450;-85
2022/07/10 04:33:22;;;;;;;9.50;8.50;;;18.30;99.90;;;;;;4938974;29;20457;-84
2022/07/10 04:35:49;;;;;;;11.17;9.20;;;18.40;99.90;;;;;;4935785;29;20478;-84
2022/07/10 04:38:15;;;;;;;11.40;9.07;;;18.40;99.90;;;;;;4934971;29;20462;-84
2022/07/10 04:40:42;;;;;;;9.20;8.37;;;18.40;99.90;;;;;;4935041;29;20524;-84
2022/07/10 04:43:11;;;;;;;10.57;8.17;;;18.50;99.90;;;;;;4944791;29;20529;-84
2022/07/10 04:45:38;;;;;;;9.33;8.37;;;18.40;99.90;;;;;;4947719;29;20470;-84
2022/07/10 04:48:06;;;;;;;8.07;7.37;;;18.50;99.90;;;;;;4944419;29;20461;-84
2022/07/10 04:50:32;;;;;;;7.77;7.03;;;18.40;99.90;;;;;;4939209;29;20449;-84
2022/07/10 04:52:59;;;;;;;7.20;6.50;;;18.40;99.90;;;;;;4938655;29;20442;-83
2022/07/10 04:55:26;;;;;;;9.03;6.73;;;18.40;99.90;;;;;;4946464;29;20566;-83
2022/07/10 04:57:53;;;;;;;6.93;6.33;;;18.30;99.90;;;;;;4961651;29;20453;-83
2022/07/10 05:00:22;;;;;;;6.30;5.70;;;18.30;99.90;;;;;;4945628;29;20452;-84
2022/07/10 05:02:48;;;;;;;9.10;7.70;;;18.30;99.90;;;;;;4939489;29;20458;-84
2022/07/10 05:05:15;;;;;;;8.17;7.47;;;18.20;99.90;;;;;;4938671;29;21215;-84
2022/07/10 05:07:42;;;;;;;9.67;8.77;;;18.30;99.90;;;;;;4939973;29;20454;-84
2022/07/10 05:10:09;;;;;;;12.03;7.90;;;18.50;99.90;;;;;;4939126;29;20457;-84
2022/07/10 05:12:36;;;;;;;8.23;7.60;;;18.60;99.90;;;;;;4939016;29;20536;-84
2022/07/10 05:15:03;;;;;;;8.43;7.73;;;18.70;99.90;;;;;;4938330;29;20505;-84
2022/07/10 05:17:31;;;;;;;8.57;7.77;;;18.80;99.90;;;;;;4938507;29;20518;-84
2022/07/10 05:19:58;;;;;;;7.57;6.93;;;18.80;99.90;;;;;;4938338;29;20489;-84
2022/07/10 05:22:25;;;;;;;7.20;6.70;;;18.80;99.90;;;;;;4938218;29;20517;-84
2022/07/10 05:24:52;;;;;;;7.23;6.63;;;18.90;99.90;;;;;;4938847;29;20474;-84
2022/07/10 05:27:20;;;;;;;6.80;5.80;;;19.10;99.90;;;;;;4948550;29;20850;-84
2022/07/10 05:29:46;;;;;;;7.47;6.80;;;19.30;99.90;;;;;;4961715;29;20464;-84
2022/07/10 05:32:13;;;;;;;6.17;5.60;;;19.50;99.90;;;;;;4953993;29;20446;-84
2022/07/10 05:34:41;;;;;;;5.73;5.13;;;19.60;99.90;;;;;;4951500;29;20501;-84
2022/07/10 05:37:08;;;;;;;6.73;5.07;;;19.80;99.90;;;;;;4942678;29;20643;-84
2022/07/10 05:39:35;;;;;;;4.97;4.57;;;19.70;99.90;;;;;;4940962;29;20517;-84
2022/07/10 05:42:01;;;;;;;7.00;4.90;;;19.60;99.90;;;;;;4941644;29;20450;-84
2022/07/10 05:44:28;;;;;;;4.67;4.17;;;20.10;99.90;;;;;;4941068;29;20872;-84
2022/07/10 05:46:55;;;;;;;4.57;4.17;;;20.80;99.90;;;;;;4940432;29;20450;-85
2022/07/10 05:49:21;;;;;;;5.40;4.00;;;21.30;98.20;;;;;;4939739;29;20509;-85
2022/07/10 05:51:49;;;;;;;3.97;3.60;;;21.50;95.50;;;;;;4940277;29;21018;-83
2022/07/10 05:54:16;;;;;;;4.73;3.13;;;21.90;94.40;;;;;;4939811;29;20505;-83
2022/07/10 05:56:43;;;;;;;3.17;2.77;;;22.40;92.30;;;;;;4940457;29;20454;-84
2022/07/10 05:59:09;;;;;;;5.80;3.43;;;22.90;90.40;;;;;;4954841;29;20422;-84
2022/07/10 06:01:36;;;;;;;3.43;2.70;;;23.50;87.80;;;;;;4958434;29;20450;-83
2022/07/10 06:04:03;;;;;;;4.43;3.23;;;23.60;84.70;;;;;;4953771;29;20469;-83
2022/07/10 06:06:29;;;;;;;5.17;3.00;;;23.20;83.90;;;;;;4960206;29;20434;-84
2022/07/10 06:08:58;;;;;;;4.70;3.07;;;22.90;84.70;;;;;;4946784;29;20450;-84
2022/07/10 06:11:25;;;;;;;7.67;3.00;;;22.50;85.70;;;;;;4948191;29;20454;-84
2022/07/10 06:13:52;;;;;;;6.33;3.63;;;22.10;87.30;;;;;;4947462;29;20442;-84
2022/07/10 06:16:18;;;;;;;3.70;2.80;;;21.80;88.50;;;;;;4946505;29;20442;-83
2022/07/10 06:18:45;;;;;;;2.93;2.30;;;21.60;89.60;;;;;;4947123;29;20457;-83
2022/07/10 06:21:12;;;;;;;3.60;2.70;;;21.40;90.20;;;;;;4945211;29;20445;-83
2022/07/10 06:23:38;;;;;;;3.80;3.10;;;21.30;90.50;;;;;;4949629;29;20442;-83
2022/07/10 06:26:06;;;;;;;4.70;3.07;;;21.20;90.50;;;;;;4956925;29;20466;-83
2022/07/10 06:28:35;;;;;;;3.40;2.83;;;21.20;90.70;;;;;;4958092;29;20454;-82
2022/07/10 06:31:02;;;;;;;3.80;3.07;;;21.00;90.90;;;;;;4956792;29;20457;-82
2022/07/10 06:33:28;;;;;;;4.40;2.57;;;20.90;91.20;;;;;;4954127;29;20474;-83
2022/07/10 06:35:55;;;;;;;3.80;3.37;;;20.80;91.30;;;;;;4948084;29;20517;-82
2022/07/10 06:38:22;;;;;;;4.10;2.97;;;20.80;91.70;;;;;;4947982;29;20438;-82
2022/07/10 06:40:50;;;;;;;4.33;2.90;;;20.60;91.90;;;;;;4948609;29;20459;-82
2022/07/10 06:43:18;;;;;;;4.53;3.30;;;20.60;92.10;;;;;;4949783;29;20454;-82
2022/07/10 06:45:45;;;;;;;4.53;2.80;;;20.50;91.90;;;;;;4948280;29;20474;-82
2022/07/10 06:48:12;;;;;;;3.47;2.93;;;20.50;92.00;;;;;;4946846;29;20501;-81
2022/07/10 06:50:39;;;;;;;6.30;3.33;;;20.60;92.40;;;;;;4951664;29;20522;-82
2022/07/10 06:53:06;;;;;;;3.73;3.00;;;20.50;91.70;;;;;;4956938;29;20454;-82
2022/07/10 06:55:33;;;;;;;3.83;2.43;;;21.20;91.30;;;;;;4947132;29;20494;-82
2022/07/10 06:58:01;;;;;;;5.03;3.07;;;22.60;87.30;;;;;;4945609;29;20450;-83
2022/07/10 07:00:29;;;;;;;4.80;2.80;;;24.10;83.10;;;;;;4944900;29;20845;-82
2022/07/10 07:02:56;;;;;;;2.80;2.60;;;25.00;77.50;;;;;;4942887;29;20461;-83
2022/07/10 07:05:23;;;;;;;3.40;2.33;;;24.70;73.70;;;;;;4944587;29;20510;-83
2022/07/10 07:07:50;;;;;;;3.97;2.67;;;23.90;75.60;;;;;;4951997;29;20442;-83
2022/07/10 07:10:16;;;;;;;3.20;2.63;;;23.40;77.30;;;;;;4958460;29;20456;-83
2022/07/10 07:12:43;;;;;;;3.93;2.33;;;23.00;77.60;;;;;;4956710;29;20446;-81
2022/07/10 07:15:10;;;;;;;4.63;3.13;;;23.20;77.00;;;;;;4953659;29;20509;-84
2022/07/10 07:17:56;;;;;;;3.70;2.70;;;23.20;77.10;;;;;;4950516;29;20434;-82
2022/07/10 07:23:12;;;;;;;4.83;2.33;;;24.10;74.70;;;;;;4947043;29;20466;-82
2022/07/10 07:25:41;;;;;;;2.67;2.37;;;25.20;68.20;;;;;;4943963;29;20466;-83
2022/07/10 07:28:09;;;;;;;4.20;2.47;;;25.60;65.40;;;;;;4944216;29;20454;-83
2022/07/10 07:30:35;;;;;;;4.67;2.37;;;25.30;65.30;;;;;;4944995;29;20450;-83
2022/07/10 07:33:04;;;;;;;4.07;2.83;;;24.70;67.20;;;;;;4944322;29;20819;-83
2022/07/10 07:35:30;;;;;;;4.37;2.20;;;23.90;70.60;;;;;;4943554;29;20581;-84
2022/07/10 07:37:57;;;;;;;4.03;2.00;;;23.40;70.70;;;;;;4954549;29;20506;-83
2022/07/10 07:40:24;;;;;;;3.67;2.20;;;23.10;71.80;;;;;;4945988;29;20483;-84
2022/07/10 07:42:51;;;;;;;3.47;2.53;;;22.70;72.90;;;;;;4945578;29;20457;-84
2022/07/10 07:45:18;;;;;;;6.27;3.10;;;22.20;74.30;;;;;;4945964;29;20513;-83
2022/07/10 07:47:46;;;;;;;5.17;2.63;;;21.90;75.50;;;;;;4946160;29;20442;-84
2022/07/10 07:50:15;;;;;;;3.03;2.73;;;21.60;77.00;;;;;;4954942;29;20450;-84
2022/07/10 07:52:42;;;;;;;5.23;2.40;;;21.60;77.40;;;;;;4949027;29;21189;-84
2022/07/10 07:55:10;;;;;;;2.90;2.40;;;21.50;77.60;;;;;;4938881;29;20490;-83
2022/07/10 07:57:37;;;;;;;6.10;2.57;;;21.40;78.10;;;;;;4936094;29;20459;-81
2022/07/10 08:00:05;;;;;;;3.83;2.53;;;21.40;77.90;;;;;;4935844;28;20443;-82
2022/07/10 08:02:32;;;;;;;4.37;2.17;;;21.50;75.10;;;;;;4936579;29;20458;-82
2022/07/10 08:04:58;;;;;;;3.03;2.37;;;21.70;74.40;;;;;;4935788;29;20477;-82
2022/07/10 08:07:35;;;;;;;4.70;2.37;;;23.00;71.00;;;;;;4937208;29;20450;-81
2022/07/10 08:10:02;;;;;;;4.13;2.20;;;23.40;68.10;;;;;;4940532;29;20482;-82
2022/07/10 08:12:29;;;;;;;3.00;2.10;;;23.40;68.60;;;;;;4940428;29;20446;-82
2022/07/10 08:14:56;;;;;;;4.80;1.90;;;23.60;68.70;;;;;;4938580;29;20490;-82
2022/07/10 08:17:22;;;;;;;3.13;2.00;;;23.70;68.30;;;;;;4936206;29;20869;-82
2022/07/10 08:19:49;;;;;;;6.40;2.20;;;23.70;67.10;;;;;;4941415;29;20462;-90
2022/07/10 08:22:16;;;;;;;2.70;1.70;;;23.50;67.60;;;;;;4958474;28;20450;-86
2022/07/10 08:24:44;;;;;;;4.73;2.10;;;24.20;68.00;;;;;;4944094;29;20461;-88
2022/07/10 08:27:12;;;;;;;5.13;3.13;;;26.40;64.10;;;;;;4954453;29;20443;-86
2022/07/10 08:29:38;;;;;;;9.40;1.93;;;27.30;59.20;;;;;;4945197;29;20446;-86
2022/07/10 08:32:09;;;;;;;4.13;1.80;;;28.10;57.10;;;;;;4942595;29;20463;-85
2022/07/10 08:34:36;;;;;;;2.30;1.80;;;28.10;54.90;;;;;;4944607;29;20933;-86
2022/07/10 08:37:03;;;;;;;3.50;2.50;;;27.00;55.80;;;;;;4938914;29;20818;-87
2022/07/10 08:39:29;;;;;;;2.87;2.40;;;25.40;58.50;;;;;;4935999;29;20453;-85
2022/07/10 08:41:58;;;;;;;4.07;2.77;;;24.10;61.60;;;;;;4947332;29;20446;-86
2022/07/10 08:44:24;;;;;;;2.40;1.93;;;23.60;63.90;;;;;;4954624;29;20473;-85
2022/07/10 08:46:51;;;;;;;3.33;2.30;;;24.00;64.40;;;;;;4934653;29;20458;-84
2022/07/10 08:49:20;;;;;;;6.50;2.13;;;25.50;61.40;;;;;;4934821;29;20815;-87
2022/07/10 08:51:54;;;;;;;2.77;1.77;;;27.60;56.10;;;;;;4934296;29;20521;-87
2022/07/10 08:54:21;;;;;;;3.23;1.60;;;29.80;51.40;;;;;;4933937;29;20470;-86
2022/07/10 08:56:48;;;;;;;5.00;1.77;;;29.70;49.30;;;;;;4934954;29;21001;-86
2022/07/10 08:59:17;;;;;;;3.07;1.70;;;29.20;49.30;;;;;;4937649;29;20431;-85
2022/07/10 09:01:44;;;;;;;5.10;2.17;;;28.90;49.10;;;;;;4957497;29;20444;-86
2022/07/10 09:04:17;;;;;;;4.60;2.10;;;28.00;50.50;;;;;;4957888;29;20595;-85
2022/07/10 09:06:45;;;;;;;2.80;1.70;;;27.20;51.80;;;;;;4950553;29;20495;-86
2022/07/10 09:09:12;;;;;;;3.40;2.10;;;26.60;52.80;;;;;;4937969;29;20443;-90
2022/07/10 09:11:42;;;;;;;2.90;1.60;;;26.80;53.70;;;;;;4942003;29;20521;-86
2022/07/10 09:14:13;;;;;;;3.83;2.27;;;26.90;52.70;;;;;;4940150;29;20579;-91
2022/07/10 09:16:46;;;;;;;3.67;1.57;;;26.30;52.70;;;;;;4937079;29;20489;-86
2022/07/10 09:19:17;;;;;;;2.57;1.60;;;26.50;53.30;;;;;;4936796;29;20443;-90
2022/07/10 09:21:45;;;;;;;3.43;1.60;;;26.80;51.90;;;;;;4934118;29;20454;-89
2022/07/10 09:24:11;;;;;;;4.20;1.80;;;26.90;51.80;;;;;;4941745;29;20474;-88
2022/07/10 09:26:39;;;;;;;2.67;1.43;;;27.70;51.30;;;;;;4948332;29;20453;-87
2022/07/10 09:29:07;;;;;;;2.93;1.90;;;29.70;49.00;;;;;;4949313;28;20438;-87
2022/07/10 09:34:40;;;;;;;2.10;1.90;;;29.90;46.00;;;;;;5114490;28;20524;-88
2022/07/10 09:37:24;;;;;;;3.03;1.90;;;27.80;48.30;;;;;;5083689;23;20496;-86
2022/07/10 09:39:56;;;;;;;3.50;2.20;;;26.80;50.10;;;;;;5064769;28;20440;-87
2022/07/10 09:42:27;;;;;;;3.20;1.83;;;26.70;50.20;;;;;;5060756;28;20444;-84
2022/07/10 09:45:13;;;;;;;4.70;1.93;;;26.10;50.70;;;;;;5056013;28;20782;-86
2022/07/10 09:47:40;;;;;;;5.10;2.03;;;25.50;51.70;;;;;;5071705;28;20891;-87
2022/07/10 09:50:21;;;;;;;2.50;1.70;;;25.10;52.50;;;;;;5067756;28;20443;-84
2022/07/10 09:52:50;;;;;;;2.90;1.80;;;25.90;52.60;;;;;;5068458;28;20477;-85
2022/07/10 09:55:19;;;;;;;2.60;1.73;;;26.50;50.80;;;;;;5064171;28;20457;-86
2022/07/10 09:57:53;;;;;;;2.57;1.87;;;25.90;51.10;;;;;;5067472;28;20460;-86
2022/07/10 10:00:20;;;;;;;4.03;2.20;;;25.60;51.80;;;;;;5056752;28;20451;-87
2022/07/10 10:02:47;;;;;;;5.33;1.70;;;25.50;52.30;;;;;;5058028;28;20444;-85
2022/07/10 10:05:16;;;;;;;4.30;1.90;;;26.00;51.80;;;;;;5058853;28;20445;-81
2022/07/10 10:07:44;;;;;;;4.53;2.10;;;26.30;51.00;;;;;;5073854;28;20445;-82
2022/07/10 10:10:12;;;;;;;4.43;1.97;;;26.20;50.90;;;;;;5068173;28;20430;-85
2022/07/10 10:12:45;;;;;;;2.60;1.40;;;25.80;51.30;;;;;;5056551;28;20476;-86
2022/07/10 10:15:12;;;;;;;4.27;2.53;;;25.50;51.80;;;;;;5057685;28;20448;-86
2022/07/10 10:17:41;;;;;;;3.30;2.07;;;25.00;52.80;;;;;;5053309;28;20520;-85
2022/07/10 10:22:56;;;;;;;6.60;2.00;;;25.70;51.50;;;;;;5054164;28;20902;-85
2022/07/10 10:25:25;;;;;;;3.17;1.63;;;26.30;50.50;;;;;;5046235;28;20940;-86
2022/07/10 10:27:53;;;;;;;3.17;1.70;;;27.50;48.30;;;;;;5054900;28;20446;-85
2022/07/10 10:30:20;;;;;;;2.07;1.70;;;28.20;46.90;;;;;;5050820;28;20449;-86
2022/07/10 10:32:47;;;;;;;2.80;1.80;;;28.30;47.20;;;;;;5065281;28;20846;-85
2022/07/10 10:35:43;;;;;;;3.37;1.97;;;28.00;46.80;;;;;;5057583;28;20508;-84
2022/07/10 10:38:11;;;;;;;2.83;1.87;;;29.80;45.80;;;;;;5045675;28;20452;-83
2022/07/10 10:40:38;;;;;;;3.63;2.10;;;30.30;43.50;;;;;;5051144;28;20507;-83
2022/07/10 10:43:19;;;;;;;3.43;2.60;;;30.20;42.90;;;;;;5048730;28;20442;-83
2022/07/10 10:45:46;;;;;;;2.10;1.47;;;28.60;44.50;;;;;;5037287;28;20453;-83
2022/07/10 10:48:15;;;;;;;3.33;1.77;;;27.40;47.00;;;;;;5040170;28;20436;-83
2022/07/10 10:50:43;;;;;;;2.43;1.60;;;29.10;45.90;;;;;;5034630;28;20460;-83
2022/07/10 10:53:19;;;;;;;4.60;1.40;;;31.50;43.10;;;;;;5040888;28;20547;-83
2022/07/10 10:56:26;;;;;;;2.70;1.40;;;30.80;43.10;;;;;;5039528;28;20490;-84
2022/07/10 10:58:53;;;;;;;2.67;1.60;;;33.00;40.80;;;;;;5038132;28;20441;-84
2022/07/10 11:01:30;;;;;;;2.60;1.50;;;34.50;38.40;;;;;;5037821;28;20435;-83
2022/07/10 11:04:19;;;;;;;3.00;1.57;;;33.00;38.10;;;;;;5042411;28;20810;-83
2022/07/10 11:06:48;;;;;;;3.03;1.70;;;29.90;40.70;;;;;;5032105;28;20524;-83
2022/07/10 11:09:26;;;;;;;2.00;1.30;;;28.70;44.30;;;;;;5034317;28;20438;-83
2022/07/10 11:11:59;;;;;;;3.30;1.87;;;30.70;43.90;;;;;;5037244;28;20443;-83
2022/07/10 11:14:28;;;;;;;4.13;1.60;;;32.50;40.60;;;;;;5032919;28;20831;-83
2022/07/10 11:16:55;;;;;;;3.60;1.50;;;33.10;39.20;;;;;;5039464;28;20473;-83
2022/07/10 11:19:24;;;;;;;3.53;1.93;;;34.40;37.70;;;;;;5054142;28;20439;-84
2022/07/10 11:22:23;;;;;;;2.20;1.50;;;35.00;35.80;;;;;;5035714;28;20523;-84
2022/07/10 11:25:01;;;;;;;2.67;1.60;;;35.00;35.20;;;;;;5036006;28;20500;-83
2022/07/10 11:27:50;;;;;;;3.73;1.60;;;36.00;33.30;;;;;;5041344;28;20554;-83
2022/07/10 11:30:17;;;;;;;3.10;1.87;;;34.50;35.10;;;;;;5032438;28;20954;-84
2022/07/10 11:32:44;;;;;;;5.30;2.00;;;33.60;36.50;;;;;;5037118;28;21010;-83
2022/07/10 11:35:12;;;;;;;2.73;1.70;;;34.40;35.90;;;;;;5033011;28;20869;-84
2022/07/10 11:37:49;;;;;;;5.03;1.30;;;35.50;34.30;;;;;;5034095;28;20477;-84
2022/07/10 11:40:19;;;;;;;2.50;1.80;;;36.20;33.00;;;;;;5038225;28;20813;-84
2022/07/10 11:42:50;;;;;;;3.73;1.60;;;37.60;31.20;;;;;;5038305;28;20810;-83
2022/07/10 11:45:26;;;;;;;1.80;1.30;;;37.40;30.70;;;;;;5035965;28;20535;-84
2022/07/10 11:47:53;;;;;;;2.40;1.47;;;35.10;31.40;;;;;;5050006;28;20845;-83
2022/07/10 11:50:19;;;;;;;3.43;2.17;;;34.40;33.00;;;;;;5035894;28;20506;-84
2022/07/10 11:52:47;;;;;;;2.97;1.40;;;35.00;31.90;;;;;;5044529;28;20517;-84
2022/07/10 11:55:19;;;;;;;3.80;1.30;;;34.70;32.10;;;;;;5039426;28;20517;-83
2022/07/10 11:57:48;;;;;;;5.00;2.00;;;33.40;33.30;;;;;;5033908;28;20554;-83
2022/07/10 12:00:25;;;;;;;2.30;1.60;;;32.10;35.70;;;;;;5035702;28;20498;-83
2022/07/10 12:02:52;;;;;;;1.73;1.10;;;30.60;37.60;;;;;;5029481;28;20815;-84
2022/07/10 12:05:36;;;;;;;2.30;1.30;;;29.80;39.00;;;;;;5034778;28;20914;-83
2022/07/10 12:08:03;;;;;;;1.80;0.90;;;30.60;38.30;;;;;;5029624;28;20438;-83
2022/07/10 12:10:33;;;;;;;2.20;1.20;;;31.30;37.30;;;;;;5048659;28;20437;-84
2022/07/10 12:13:06;;;;;;;2.93;1.50;;;32.80;35.10;;;;;;5049739;28;20471;-84
2022/07/10 12:15:36;;;;;;;4.30;1.13;;;34.40;33.90;;;;;;5030382;28;20436;-84
2022/07/10 12:18:03;;;;;;;2.63;1.50;;;36.10;31.30;;;;;;5036045;28;20446;-84
2022/07/10 12:20:30;;;;;;;1.77;1.00;;;35.90;29.90;;;;;;5034374;28;20446;-84
2022/07/10 12:22:57;;;;;;;1.90;1.43;;;34.60;30.70;;;;;;5033014;28;20448;-85
2022/07/10 12:25:24;;;;;;;1.77;1.00;;;33.40;32.90;;;;;;5036455;28;20963;-85
2022/07/10 12:27:58;;;;;;;2.80;1.57;;;33.20;33.30;;;;;;5037195;28;20485;-84
2022/07/10 12:30:36;;;;;;;3.33;1.13;;;32.80;33.50;;;;;;5038811;28;20453;-85
2022/07/10 12:33:10;;;;;;;3.00;0.97;;;33.10;34.00;;;;;;5034575;28;20453;-84
2022/07/10 12:35:55;;;;;;;2.43;1.20;;;34.50;32.10;;;;;;5037205;28;20453;-86
2022/07/10 12:38:24;;;;;;;1.90;0.90;;;35.50;30.00;;;;;;5039653;28;20448;-85
2022/07/10 12:40:51;;;;;;;2.67;1.37;;;36.60;29.60;;;;;;5037264;28;20455;-82
2022/07/10 12:43:33;;;;;;;4.30;1.30;;;37.00;28.80;;;;;;5032626;28;20512;-83
2022/07/10 12:46:11;;;;;;;3.03;1.13;;;35.20;29.60;;;;;;5039935;28;20556;-84
2022/07/10 12:48:40;;;;;;;2.20;1.23;;;32.90;32.40;;;;;;5040562;28;20436;-82
2022/07/10 12:51:23;;;;;;;3.87;1.63;;;32.50;33.20;;;;;;5037369;28;21033;-82
2022/07/10 12:53:50;;;;;;;2.80;1.73;;;31.70;33.80;;;;;;5035201;28;20497;-83
2022/07/10 12:56:35;;;;;;;3.00;1.20;;;31.40;35.00;;;;;;5039082;28;20472;-83
2022/07/10 12:59:11;;;;;;;3.53;1.37;;;32.90;33.70;;;;;;5036577;28;20440;-85
2022/07/10 13:01:43;;;;;;;2.60;1.10;;;34.60;31.80;;;;;;5037238;28;20455;-82
2022/07/10 13:04:10;;;;;;;2.17;1.20;;;35.20;30.00;;;;;;5036503;28;20447;-82
2022/07/10 13:06:38;;;;;;;3.00;1.10;;;35.80;30.00;;;;;;5037590;28;20459;-83